Time;durP1;ratioP1;P1;durP2;ratioP2;P2;SDS_P1;SDS_P2;PMS_P1;PMS_P2;Temp;Humidity;BMP_temperature;BMP_pressure;BME280_temperature;BME280_humidity;BME280_pressure;Samples;Min_cycle;Max_cycle;Signal;HPM_P1;HPM_P2
2022/01/12 00:01:05;;;;;;;5.50;4.40;;;-3.20;71.30;;;;;;5082274;28;20449;-58
2022/01/12 00:03:33;;;;;;;6.65;4.25;;;-3.20;71.30;;;;;;5079581;28;20035;-59
2022/01/12 00:06:00;;;;;;;6.53;4.40;;;-3.20;71.00;;;;;;5079055;28;20406;-58
2022/01/12 00:08:26;;;;;;;8.57;4.63;;;-3.30;70.80;;;;;;5075359;28;20052;-60
2022/01/12 00:10:52;;;;;;;7.05;4.50;;;-3.30;70.80;;;;;;5079343;28;20028;-59
2022/01/12 00:13:18;;;;;;;6.90;4.32;;;-3.40;70.70;;;;;;5083543;28;20815;-59
2022/01/12 00:15:43;;;;;;;7.65;4.70;;;-3.40;70.80;;;;;;5078856;28;20460;-58
2022/01/12 00:18:09;;;;;;;5.80;4.60;;;-3.50;70.50;;;;;;5079572;28;20024;-57
2022/01/12 00:20:35;;;;;;;8.27;4.07;;;-3.50;71.00;;;;;;5083770;28;20472;-58
2022/01/12 00:23:01;;;;;;;5.95;4.53;;;-3.50;70.70;;;;;;5081326;28;20028;-58
2022/01/12 00:25:30;;;;;;;7.97;4.65;;;-3.60;71.10;;;;;;5085257;28;20027;-59
2022/01/12 00:33:24;;;;;;;7.68;4.55;;;-3.60;70.60;;;;;;5084126;28;20081;-59
2022/01/12 00:35:54;;;;;;;6.45;4.45;;;-3.70;70.60;;;;;;5083787;28;20020;-57
2022/01/12 00:38:25;;;;;;;8.40;5.20;;;-3.70;70.90;;;;;;5080366;28;20503;-59
2022/01/12 00:40:53;;;;;;;6.37;4.23;;;-3.70;70.60;;;;;;5078889;28;20040;-59
2022/01/12 00:43:20;;;;;;;6.45;4.57;;;-3.70;70.50;;;;;;5081141;28;20029;-59
2022/01/12 00:45:46;;;;;;;8.52;4.63;;;-3.70;70.80;;;;;;5079695;28;20025;-58
2022/01/12 00:48:13;;;;;;;6.60;4.68;;;-3.80;70.60;;;;;;5083984;28;20119;-59
2022/01/12 00:50:39;;;;;;;5.75;4.47;;;-3.80;70.50;;;;;;5085046;28;20055;-59
2022/01/12 00:53:06;;;;;;;6.80;4.05;;;-3.80;70.60;;;;;;5079594;28;20577;-59
2022/01/12 00:55:32;;;;;;;6.70;4.30;;;-3.80;71.00;;;;;;5082745;28;20539;-59
2022/01/12 00:57:58;;;;;;;6.38;4.35;;;-3.80;71.00;;;;;;5081075;28;20047;-59
2022/01/12 01:00:26;;;;;;;4.50;3.95;;;-3.80;70.90;;;;;;5079510;28;20129;-58
2022/01/12 01:02:53;;;;;;;7.00;4.60;;;-3.80;70.70;;;;;;5080035;28;20028;-57
2022/01/12 01:05:22;;;;;;;5.40;4.13;;;-3.80;70.70;;;;;;5083327;28;20060;-55
2022/01/12 01:07:48;;;;;;;7.22;4.95;;;-3.90;70.80;;;;;;5082771;28;20080;-59
2022/01/12 01:10:21;;;;;;;6.40;4.82;;;-3.90;70.60;;;;;;5079385;28;20040;-59
2022/01/12 01:12:47;;;;;;;7.03;4.35;;;-3.90;70.70;;;;;;5082447;28;20016;-59
2022/01/12 01:15:17;;;;;;;9.20;4.88;;;-4.00;70.80;;;;;;5083946;28;20038;-59
2022/01/12 01:25:42;;;;;;;7.13;4.53;;;-4.00;71.20;;;;;;5079359;28;20035;-59
2022/01/12 01:28:08;;;;;;;6.00;4.57;;;-4.00;71.30;;;;;;5080907;28;20461;-59
2022/01/12 01:30:36;;;;;;;10.63;5.05;;;-4.00;71.10;;;;;;5069053;28;20107;-57
2022/01/12 01:33:07;;;;;;;7.82;4.80;;;-4.00;71.40;;;;;;5081472;28;20025;-59
2022/01/12 01:35:36;;;;;;;6.60;4.40;;;-4.00;71.10;;;;;;5085183;28;20044;-59
2022/01/12 01:38:03;;;;;;;7.47;4.80;;;-4.00;70.90;;;;;;5084559;28;20468;-58
2022/01/12 01:40:30;;;;;;;6.28;4.13;;;-4.10;70.90;;;;;;5078897;28;20122;-59
2022/01/12 01:53:39;;;;;;;7.03;4.07;;;-4.20;70.50;;;;;;5084471;28;20031;-60
2022/01/12 01:56:06;;;;;;;6.90;4.85;;;-4.30;71.10;;;;;;5080138;28;20461;-60
2022/01/12 01:58:31;;;;;;;8.10;4.60;;;-4.30;70.80;;;;;;5081045;28;20020;-59
2022/01/12 02:00:57;;;;;;;5.78;4.60;;;-4.30;70.80;;;;;;5085124;28;20426;-59
2022/01/12 02:03:26;;;;;;;7.72;4.75;;;-4.40;70.70;;;;;;5080765;28;20110;-59
2022/01/12 02:05:52;;;;;;;5.53;4.13;;;-4.40;70.50;;;;;;5081085;28;20032;-59
2022/01/12 02:08:18;;;;;;;9.60;4.97;;;-4.40;70.60;;;;;;5082707;28;20145;-58
2022/01/12 02:10:43;;;;;;;6.60;4.55;;;-4.50;70.60;;;;;;5080390;28;20024;-58
2022/01/12 02:13:10;;;;;;;5.07;3.83;;;-4.50;70.50;;;;;;5086040;28;20031;-56
2022/01/12 02:15:37;;;;;;;5.93;4.38;;;-4.50;70.80;;;;;;5079947;28;20094;-57
2022/01/12 02:40:21;;;;;;;7.20;4.68;;;-4.50;70.40;;;;;;5083111;28;20154;-59
2022/01/12 02:42:56;;;;;;;6.38;4.43;;;-4.50;70.30;;;;;;5082895;28;20026;-59
2022/01/12 02:51:07;;;;;;;5.63;4.32;;;-4.60;70.80;;;;;;5081793;28;20509;-58
2022/01/12 02:53:42;;;;;;;;;;;-4.60;71.10;;;;;;5081120;28;20028;-58
2022/01/12 02:56:14;;;;;;;6.05;4.10;;;-4.60;70.70;;;;;;5082487;28;19994;-57
2022/01/12 02:58:42;;;;;;;5.90;3.88;;;-4.60;70.80;;;;;;5078535;28;20130;-59
2022/01/12 03:03:46;;;;;;;4.90;3.70;;;-4.70;70.80;;;;;;5081804;28;20034;-59
2022/01/12 03:06:17;;;;;;;6.03;4.10;;;-4.70;70.60;;;;;;5078872;28;20047;-59
2022/01/12 03:08:44;;;;;;;6.33;4.33;;;-4.70;70.90;;;;;;5080837;28;20492;-58
2022/01/12 03:11:12;;;;;;;6.82;4.25;;;-4.80;70.60;;;;;;5078303;28;20291;-59
2022/01/12 03:13:38;;;;;;;6.60;4.45;;;-4.80;70.40;;;;;;5082416;28;20052;-59
2022/01/12 03:16:12;;;;;;;5.35;3.92;;;-4.90;70.10;;;;;;5079933;28;20047;-59
2022/01/12 03:18:39;;;;;;;6.82;4.15;;;-4.90;70.70;;;;;;5082461;28;20078;-58
2022/01/12 03:21:05;;;;;;;7.05;4.25;;;-4.90;70.70;;;;;;5077323;28;20071;-59
2022/01/12 03:23:32;;;;;;;5.93;3.92;;;-4.90;70.70;;;;;;5077842;28;20066;-57
2022/01/12 03:25:57;;;;;;;9.35;4.05;;;-4.90;70.80;;;;;;5079053;28;20024;-59
2022/01/12 03:28:23;;;;;;;6.90;4.43;;;-5.00;70.50;;;;;;5080598;28;20095;-59
2022/01/12 03:31:07;;;;;;;5.40;3.80;;;-5.00;70.30;;;;;;5082631;28;20058;-59
2022/01/12 03:38:42;;;;;;;6.53;3.85;;;-5.00;70.10;;;;;;5075235;28;20470;-59
2022/01/12 03:41:08;;;;;;;5.60;4.05;;;-5.10;70.10;;;;;;5078058;28;20056;-59
2022/01/12 03:43:34;;;;;;;5.90;4.00;;;-5.10;70.00;;;;;;5079304;28;20026;-59
2022/01/12 03:45:59;;;;;;;6.50;3.80;;;-5.10;70.10;;;;;;5080218;28;20036;-59
2022/01/12 03:48:25;;;;;;;7.07;4.35;;;-5.10;70.00;;;;;;5081778;28;20468;-59
2022/01/12 03:50:51;;;;;;;5.80;3.97;;;-5.10;70.30;;;;;;5078748;28;20024;-57
2022/01/12 03:53:16;;;;;;;7.20;4.13;;;-5.10;70.00;;;;;;5082036;28;20040;-57
2022/01/12 03:55:43;;;;;;;5.85;3.95;;;-5.10;69.70;;;;;;5081619;28;20078;-58
2022/01/12 03:58:11;;;;;;;5.40;3.58;;;-5.20;69.80;;;;;;5079859;28;20020;-57
2022/01/12 04:00:37;;;;;;;6.28;3.92;;;-5.20;69.90;;;;;;5083757;28;20035;-59
2022/01/12 04:03:06;;;;;;;7.55;4.15;;;-5.20;69.60;;;;;;5081713;28;20387;-59
2022/01/12 04:08:21;;;;;;;6.38;3.95;;;-5.30;70.60;;;;;;5081336;28;20116;-58
2022/01/12 04:10:52;;;;;;;5.85;3.60;;;-5.30;70.00;;;;;;5083370;28;20043;-59
2022/01/12 04:13:19;;;;;;;5.88;4.13;;;-5.30;70.00;;;;;;5082573;28;20021;-58
2022/01/12 04:15:47;;;;;;;5.22;4.00;;;-5.30;70.40;;;;;;5085088;28;20357;-56
2022/01/12 04:18:14;;;;;;;4.80;3.80;;;-5.30;69.80;;;;;;5081800;28;20111;-59
2022/01/12 04:20:49;;;;;;;6.05;4.18;;;-5.30;69.70;;;;;;5078665;28;20040;-57
2022/01/12 04:23:20;;;;;;;4.88;3.80;;;-5.30;69.70;;;;;;5080032;28;20059;-58
2022/01/12 04:25:56;;;;;;;7.43;3.72;;;-5.40;69.70;;;;;;5083486;28;20032;-59
2022/01/12 04:28:23;;;;;;;4.38;3.83;;;-5.40;69.80;;;;;;5079047;28;20135;-58
2022/01/12 04:30:50;;;;;;;6.78;3.80;;;-5.40;69.50;;;;;;5080176;28;20136;-57
2022/01/12 04:33:17;;;;;;;7.10;3.78;;;-5.50;69.00;;;;;;5087419;28;20090;-58
2022/01/12 04:35:49;;;;;;;5.65;4.07;;;-5.60;68.90;;;;;;5082865;28;20111;-57
2022/01/12 04:38:18;;;;;;;5.75;4.22;;;-5.60;69.00;;;;;;5080719;28;20026;-58
2022/01/12 04:40:44;;;;;;;5.10;4.00;;;-5.60;69.10;;;;;;5080783;28;20028;-59
2022/01/12 04:43:10;;;;;;;6.43;4.47;;;-5.60;70.10;;;;;;5087019;28;20058;-56
2022/01/12 04:45:46;;;;;;;13.45;4.80;;;-5.60;69.40;;;;;;5086637;28;20028;-59
2022/01/12 04:50:41;;;;;;;7.25;4.72;;;-5.70;69.00;;;;;;5083001;28;20065;-58
2022/01/12 04:53:07;;;;;;;9.25;4.60;;;-5.80;68.80;;;;;;5086801;28;20059;-59
2022/01/12 04:55:33;;;;;;;5.18;4.15;;;-5.80;69.10;;;;;;5084444;28;20021;-59
2022/01/12 04:57:58;;;;;;;7.22;4.68;;;-5.80;69.30;;;;;;5080261;28;20087;-59
2022/01/12 05:00:26;;;;;;;8.18;4.90;;;-5.90;69.10;;;;;;5081364;28;20025;-58
2022/01/12 05:08:36;;;;;;;8.35;4.13;;;-6.00;68.80;;;;;;5082855;28;20129;-59
2022/01/12 05:13:50;;;;;;;6.50;4.68;;;-6.10;68.40;;;;;;5080953;28;20434;-59
2022/01/12 05:16:17;;;;;;;7.53;4.68;;;-6.20;68.10;;;;;;5083088;28;20464;-54
2022/01/12 05:18:45;;;;;;;5.47;4.00;;;-6.20;68.10;;;;;;5080257;28;20040;-55
2022/01/12 05:21:11;;;;;;;5.72;4.38;;;-6.20;68.00;;;;;;5082598;28;20040;-57
2022/01/12 05:23:38;;;;;;;6.68;3.90;;;-6.30;68.20;;;;;;5080155;28;20079;-56
2022/01/12 05:26:04;;;;;;;6.03;4.30;;;-6.30;68.00;;;;;;5083100;28;20025;-58
2022/01/12 05:28:31;;;;;;;8.85;4.45;;;-6.30;68.00;;;;;;5080617;28;20035;-59
2022/01/12 05:30:58;;;;;;;8.23;4.53;;;-6.30;68.20;;;;;;5079354;28;20021;-58
2022/01/12 05:33:25;;;;;;;4.07;3.38;;;-6.30;68.50;;;;;;5080091;28;20028;-59
2022/01/12 05:35:55;;;;;;;5.38;4.03;;;-6.30;68.50;;;;;;5082118;28;20039;-59
2022/01/12 05:38:22;;;;;;;5.55;4.07;;;-6.30;68.30;;;;;;5083171;28;20020;-55
2022/01/12 05:41:00;;;;;;;4.47;3.75;;;-6.30;68.20;;;;;;5081055;28;20021;-57
2022/01/12 05:43:29;;;;;;;4.90;3.63;;;-6.30;67.80;;;;;;5082345;28;20028;-58
2022/01/12 05:45:58;;;;;;;5.03;3.50;;;-6.30;67.70;;;;;;5080854;28;20484;-57
2022/01/12 05:51:08;;;;;;;4.82;3.78;;;-6.20;68.10;;;;;;5078359;28;20078;-57
2022/01/12 05:53:33;;;;;;;4.35;3.38;;;-6.20;68.20;;;;;;5088742;28;20020;-57
2022/01/12 05:55:59;;;;;;;4.65;3.88;;;-6.20;68.00;;;;;;5080952;28;20027;-55
2022/01/12 05:58:25;;;;;;;5.22;3.80;;;-6.10;68.00;;;;;;5078382;28;20029;-57
2022/01/12 06:00:50;;;;;;;5.60;4.05;;;-6.10;67.90;;;;;;5080218;28;20102;-59
2022/01/12 06:03:16;;;;;;;6.47;4.53;;;-6.10;68.00;;;;;;5079175;28;20052;-59
2022/01/12 06:05:42;;;;;;;5.60;3.90;;;-6.10;67.80;;;;;;5081528;28;20098;-59
2022/01/12 06:08:07;;;;;;;9.32;4.93;;;-6.10;67.60;;;;;;5080492;28;20107;-59
2022/01/12 06:10:33;;;;;;;5.75;3.67;;;-6.20;67.50;;;;;;5078342;28;20056;-57
2022/01/12 06:12:58;;;;;;;5.03;4.00;;;-6.30;67.50;;;;;;5080605;28;20484;-59
2022/01/12 06:15:24;;;;;;;5.78;4.05;;;-6.40;67.70;;;;;;5080765;28;20730;-54
2022/01/12 06:17:50;;;;;;;5.60;4.20;;;-6.50;67.80;;;;;;5082887;28;20024;-59
2022/01/12 06:20:15;;;;;;;5.13;4.07;;;-6.50;68.10;;;;;;5080182;28;20024;-57
2022/01/12 06:22:41;;;;;;;6.32;4.03;;;-6.50;68.30;;;;;;5078658;28;20024;-58
2022/01/12 06:25:12;;;;;;;5.88;4.13;;;-6.50;68.10;;;;;;5067073;28;20035;-58
2022/01/12 06:27:48;;;;;;;6.35;5.00;;;-6.40;68.00;;;;;;5074439;28;20028;-56
2022/01/12 06:32:56;;;;;;;6.85;4.90;;;-6.40;67.50;;;;;;5078522;28;20645;-58
2022/01/12 06:35:23;;;;;;;7.07;3.78;;;-6.50;67.70;;;;;;5076552;28;20078;-59
2022/01/12 06:37:49;;;;;;;6.57;4.20;;;-6.50;67.90;;;;;;5075742;28;20496;-59
2022/01/12 06:40:16;;;;;;;5.38;4.72;;;-6.50;68.40;;;;;;5085581;28;20024;-58
2022/01/12 06:42:42;;;;;;;4.95;4.00;;;-6.40;68.60;;;;;;5080477;28;20388;-59
2022/01/12 06:45:09;;;;;;;3.72;3.42;;;-6.40;68.20;;;;;;5086008;28;20032;-58
2022/01/12 06:47:35;;;;;;;5.93;4.32;;;-6.40;68.20;;;;;;5080773;28;20032;-59
2022/01/12 06:50:01;;;;;;;5.32;3.67;;;-6.40;68.30;;;;;;5081196;28;20031;-59
2022/01/12 06:52:27;;;;;;;8.05;4.10;;;-6.40;68.40;;;;;;5072760;28;20028;-56
2022/01/12 06:54:54;;;;;;;5.53;4.03;;;-6.40;68.40;;;;;;5074715;28;22318;-59
2022/01/12 06:57:20;;;;;;;5.65;3.78;;;-6.40;68.50;;;;;;5082640;28;20044;-57
2022/01/12 06:59:46;;;;;;;6.30;4.15;;;-6.50;68.30;;;;;;5072111;28;20129;-57
2022/01/12 07:02:11;;;;;;;4.78;3.75;;;-6.50;68.40;;;;;;5059308;28;20064;-60
2022/01/12 07:04:37;;;;;;;8.88;4.75;;;-6.50;68.10;;;;;;5057847;28;20040;-59
2022/01/12 07:07:03;;;;;;;5.82;4.35;;;-6.50;68.20;;;;;;5065551;28;20130;-58
2022/01/12 07:09:28;;;;;;;6.80;4.00;;;-6.50;67.90;;;;;;5070119;28;20043;-59
2022/01/12 07:11:54;;;;;;;5.43;4.25;;;-6.50;68.00;;;;;;5077027;28;20714;-58
2022/01/12 07:14:20;;;;;;;8.13;3.85;;;-6.50;67.90;;;;;;5073484;28;20036;-59
2022/01/12 07:16:46;;;;;;;6.82;4.57;;;-6.50;67.70;;;;;;5078624;28;20044;-59
2022/01/12 07:19:11;;;;;;;5.68;3.90;;;-6.60;67.60;;;;;;5072361;28;20452;-59
2022/01/12 07:21:37;;;;;;;6.32;4.00;;;-6.60;67.80;;;;;;5068672;28;20504;-59
2022/01/12 07:24:03;;;;;;;7.95;4.13;;;-6.60;68.20;;;;;;5063253;28;22029;-59
2022/01/12 07:26:29;;;;;;;5.38;3.95;;;-6.60;68.20;;;;;;5064790;28;20024;-59
2022/01/12 07:28:56;;;;;;;5.65;4.35;;;-6.50;68.10;;;;;;5064941;28;20036;-58
2022/01/12 07:31:22;;;;;;;7.13;4.10;;;-6.50;68.10;;;;;;5070321;28;20532;-60
2022/01/12 07:33:50;;;;;;;6.50;4.47;;;-6.50;68.10;;;;;;5069127;28;20058;-60
2022/01/12 07:36:16;;;;;;;8.15;4.55;;;-6.40;68.20;;;;;;5069834;28;20069;-60
2022/01/12 07:38:42;;;;;;;6.40;3.95;;;-6.40;68.00;;;;;;5073266;28;20090;-59
2022/01/12 07:41:08;;;;;;;5.60;4.30;;;-6.30;68.20;;;;;;5069320;28;20035;-60
2022/01/12 07:43:34;;;;;;;7.63;4.55;;;-6.30;67.70;;;;;;5072596;28;20056;-61
2022/01/12 07:45:59;;;;;;;8.20;4.32;;;-6.30;67.60;;;;;;5064546;28;20040;-60
2022/01/12 07:48:25;;;;;;;6.45;4.57;;;-6.30;67.40;;;;;;5067728;28;20039;-60
2022/01/12 07:50:51;;;;;;;6.35;4.15;;;-6.30;67.50;;;;;;5066037;28;20684;-59
2022/01/12 07:53:17;;;;;;;6.57;4.50;;;-6.30;67.70;;;;;;5063077;28;20032;-60
2022/01/12 07:55:42;;;;;;;8.23;4.50;;;-6.20;67.70;;;;;;5061130;28;20158;-58
2022/01/12 07:58:08;;;;;;;7.05;4.00;;;-6.20;67.30;;;;;;5068966;28;20123;-59
2022/01/12 08:00:35;;;;;;;4.88;3.95;;;-6.30;67.30;;;;;;5059641;28;21295;-59
2022/01/12 08:03:00;;;;;;;5.57;4.13;;;-6.30;66.60;;;;;;5058881;28;20028;-59
2022/01/12 08:05:26;;;;;;;7.63;4.43;;;-6.30;67.40;;;;;;5060360;28;20037;-61
2022/01/12 08:07:54;;;;;;;7.55;4.38;;;-6.20;67.50;;;;;;5062804;28;20033;-61
2022/01/12 08:10:20;;;;;;;6.40;4.28;;;-6.20;67.20;;;;;;5065203;28;20032;-60
2022/01/12 08:12:46;;;;;;;6.78;3.97;;;-6.20;67.00;;;;;;5059549;28;20035;-59
2022/01/12 08:15:12;;;;;;;5.68;4.28;;;-6.20;67.20;;;;;;5064387;28;21066;-60
2022/01/12 08:17:38;;;;;;;6.53;4.35;;;-6.20;67.10;;;;;;5067415;28;20498;-59
2022/01/12 08:20:06;;;;;;;8.45;4.80;;;-6.20;66.90;;;;;;5069391;28;20032;-58
2022/01/12 08:22:32;;;;;;;6.93;4.40;;;-6.10;67.30;;;;;;5067438;28;20555;-58
2022/01/12 08:24:58;;;;;;;6.88;5.13;;;-6.10;67.20;;;;;;5067303;28;20067;-59
2022/01/12 08:27:23;;;;;;;8.43;4.30;;;-6.00;67.20;;;;;;5065042;28;20496;-59
2022/01/12 08:29:50;;;;;;;6.75;4.32;;;-5.90;67.00;;;;;;5069202;28;20056;-60
2022/01/12 08:32:17;;;;;;;7.60;4.32;;;-5.90;66.80;;;;;;5071488;28;20082;-58
2022/01/12 08:34:43;;;;;;;6.95;4.20;;;-5.80;67.00;;;;;;5067534;28;20532;-60
2022/01/12 08:37:08;;;;;;;6.68;3.95;;;-5.80;66.80;;;;;;5058956;28;20029;-58
2022/01/12 08:39:34;;;;;;;6.38;4.20;;;-5.70;66.70;;;;;;5056683;28;20408;-59
2022/01/12 08:42:00;;;;;;;8.60;4.45;;;-5.70;66.50;;;;;;5058082;28;20051;-59
2022/01/12 08:44:25;;;;;;;9.60;3.97;;;-5.70;66.40;;;;;;5059493;28;20107;-59
2022/01/12 08:46:51;;;;;;;6.75;4.18;;;-5.70;66.00;;;;;;5054645;28;20037;-60
2022/01/12 08:49:17;;;;;;;7.60;4.35;;;-5.70;66.10;;;;;;5061121;28;20158;-60
2022/01/12 08:51:42;;;;;;;6.32;4.57;;;-5.80;66.10;;;;;;5071087;28;20066;-59
2022/01/12 08:54:08;;;;;;;5.88;4.20;;;-5.80;65.70;;;;;;5063348;28;20779;-60
2022/01/12 08:56:36;;;;;;;7.00;4.07;;;-5.80;65.90;;;;;;5066330;28;20577;-59
2022/01/12 08:59:03;;;;;;;8.05;4.25;;;-5.90;66.10;;;;;;5062884;28;20636;-56
2022/01/12 09:01:28;;;;;;;5.05;3.88;;;-5.90;66.00;;;;;;5052483;28;20032;-59
2022/01/12 09:03:54;;;;;;;7.25;4.85;;;-5.90;65.90;;;;;;5069126;28;20039;-59
2022/01/12 09:06:20;;;;;;;6.93;4.43;;;-5.90;66.30;;;;;;5067510;28;20032;-58
2022/01/12 09:08:45;;;;;;;5.85;4.32;;;-5.90;66.00;;;;;;5067211;28;20070;-59
2022/01/12 09:11:13;;;;;;;4.82;4.22;;;-5.90;65.80;;;;;;5070503;28;20032;-58
2022/01/12 09:13:39;;;;;;;6.13;4.20;;;-5.90;65.70;;;;;;5070066;28;20028;-57
2022/01/12 09:16:06;;;;;;;10.02;4.50;;;-5.90;65.70;;;;;;5067615;28;20028;-57
2022/01/12 09:18:37;;;;;;;8.65;3.78;;;-5.90;65.50;;;;;;5061616;28;20079;-58
2022/01/12 09:21:03;;;;;;;6.72;3.92;;;-5.90;65.60;;;;;;5011660;28;1334771;-60
2022/01/12 09:23:29;;;;;;;6.80;3.83;;;-5.90;65.50;;;;;;5061492;28;20713;-59
2022/01/12 09:25:55;;;;;;;7.18;4.68;;;-5.90;65.70;;;;;;5060805;28;20048;-59
2022/01/12 09:28:22;;;;;;;5.97;4.00;;;-5.90;65.60;;;;;;5062200;28;20034;-60
2022/01/12 09:30:47;;;;;;;6.22;4.45;;;-5.90;65.50;;;;;;5064284;28;20122;-60
2022/01/12 09:33:13;;;;;;;5.20;3.95;;;-5.90;65.50;;;;;;5064646;28;20384;-60
2022/01/12 09:35:39;;;;;;;6.30;3.95;;;-5.90;65.30;;;;;;5057295;28;20858;-59
2022/01/12 09:38:04;;;;;;;6.63;4.05;;;-5.80;65.20;;;;;;5044691;28;20027;-59
2022/01/12 09:40:30;;;;;;;5.75;4.00;;;-5.80;65.20;;;;;;5055636;28;20032;-59
2022/01/12 09:43:04;;;;;;;7.30;3.70;;;-5.80;65.20;;;;;;5060095;28;20076;-59
2022/01/12 09:45:31;;;;;;;7.72;4.00;;;-5.80;65.20;;;;;;5064764;28;20037;-59
2022/01/12 09:47:57;;;;;;;4.65;4.00;;;-5.70;65.10;;;;;;5066784;28;20033;-58
2022/01/12 09:50:23;;;;;;;5.97;4.43;;;-5.70;65.00;;;;;;5065314;28;20032;-58
2022/01/12 09:52:50;;;;;;;6.95;4.13;;;-5.70;64.70;;;;;;5060244;28;20108;-59
2022/01/12 09:55:16;;;;;;;5.90;4.20;;;-5.70;64.90;;;;;;5051477;28;20074;-60
2022/01/12 09:57:42;;;;;;;6.82;4.20;;;-5.60;64.70;;;;;;5053458;28;20059;-60
2022/01/12 10:00:09;;;;;;;5.93;3.92;;;-5.60;64.80;;;;;;5063913;28;20470;-59
2022/01/12 10:02:34;;;;;;;5.13;3.88;;;-5.60;64.60;;;;;;5065275;28;20063;-60
2022/01/12 10:05:06;;;;;;;7.38;4.90;;;-5.60;64.80;;;;;;5045390;28;20558;-59
2022/01/12 10:07:32;;;;;;;5.65;4.03;;;-5.50;64.70;;;;;;5059522;28;20039;-59
2022/01/12 10:10:11;;;;;;;6.32;4.95;;;-5.50;64.30;;;;;;5066052;28;20032;-59
2022/01/12 10:12:37;;;;;;;7.25;4.22;;;-5.50;64.90;;;;;;5065942;28;20111;-60
2022/01/12 10:15:10;;;;;;;5.55;4.35;;;-5.40;65.00;;;;;;5067886;28;20032;-59
2022/01/12 10:17:41;;;;;;;5.13;3.78;;;-5.40;65.00;;;;;;5064457;28;20039;-60
2022/01/12 10:20:19;;;;;;;5.28;4.25;;;-5.30;64.70;;;;;;5059752;28;20031;-59
2022/01/12 10:23:00;;;;;;;5.80;4.28;;;-5.30;64.40;;;;;;5038939;28;20614;-59
2022/01/12 10:25:28;;;;;;;4.47;3.78;;;-5.30;64.40;;;;;;5038108;28;20032;-60
2022/01/12 10:27:54;;;;;;;4.88;3.50;;;-5.30;64.00;;;;;;5045887;28;20056;-60
2022/01/12 10:30:21;;;;;;;4.32;3.83;;;-5.30;64.00;;;;;;5036342;28;20078;-59
2022/01/12 10:32:58;;;;;;;6.45;3.80;;;-5.30;64.00;;;;;;5043693;28;20025;-59
2022/01/12 10:35:28;;;;;;;6.20;3.58;;;-5.30;64.00;;;;;;5037153;28;20039;-58
2022/01/12 10:38:08;;;;;;;5.57;3.72;;;-5.40;64.20;;;;;;5032140;28;20032;-60
2022/01/12 10:40:54;;;;;;;7.78;3.85;;;-5.40;63.70;;;;;;5037580;28;20660;-60
2022/01/12 10:43:32;;;;;;;4.78;3.90;;;-5.40;63.70;;;;;;5040873;28;20846;-59
2022/01/12 10:46:06;;;;;;;6.03;3.65;;;-5.40;63.80;;;;;;5041274;28;20358;-59
2022/01/12 10:48:40;;;;;;;6.15;3.88;;;-5.40;63.70;;;;;;5043558;28;20180;-59
2022/01/12 10:51:05;;;;;;;5.28;3.78;;;-5.40;63.50;;;;;;5041662;28;20037;-59
2022/01/12 10:53:33;;;;;;;4.88;3.60;;;-5.40;63.70;;;;;;5040577;28;20079;-58
2022/01/12 10:56:05;;;;;;;4.63;4.07;;;-5.40;63.70;;;;;;5031382;28;20039;-59
2022/01/12 10:58:32;;;;;;;7.05;3.80;;;-5.40;63.70;;;;;;5036509;28;20091;-60
2022/01/12 11:00:58;;;;;;;5.50;4.20;;;-5.40;63.90;;;;;;5034337;28;20037;-58
2022/01/12 11:03:24;;;;;;;6.22;3.42;;;-5.40;64.30;;;;;;5036025;28;20036;-60
2022/01/12 11:05:50;;;;;;;4.68;3.90;;;-5.40;63.20;;;;;;5041645;28;20036;-58
2022/01/12 11:08:18;;;;;;;4.60;3.47;;;-5.40;63.30;;;;;;5038733;28;20696;-59
2022/01/12 11:10:45;;;;;;;3.78;3.42;;;-5.40;63.80;;;;;;5038858;28;20025;-60
2022/01/12 11:13:12;;;;;;;5.28;4.22;;;-5.40;63.70;;;;;;5034902;28;21049;-59
2022/01/12 11:15:38;;;;;;;4.80;3.38;;;-5.40;63.80;;;;;;5039770;28;20064;-58
2022/01/12 11:18:04;;;;;;;6.00;3.97;;;-5.30;63.90;;;;;;5045257;28;20040;-59
2022/01/12 11:20:31;;;;;;;5.13;3.30;;;-5.30;63.80;;;;;;5042469;28;20541;-60
2022/01/12 11:23:12;;;;;;;4.30;3.40;;;-5.20;63.70;;;;;;5062573;28;20419;-60
2022/01/12 11:25:39;;;;;;;5.15;3.30;;;-5.20;63.80;;;;;;5060327;28;20033;-60
2022/01/12 11:28:07;;;;;;;5.70;3.53;;;-5.20;63.50;;;;;;5064836;28;20035;-60
2022/01/12 11:30:33;;;;;;;6.60;3.22;;;-5.20;63.50;;;;;;5060190;28;20040;-59
2022/01/12 11:33:01;;;;;;;3.97;3.20;;;-5.20;63.30;;;;;;5055332;28;20028;-58
2022/01/12 11:35:29;;;;;;;4.95;3.42;;;-5.20;63.00;;;;;;5059407;28;20032;-59
2022/01/12 11:37:59;;;;;;;3.80;3.38;;;-5.20;62.90;;;;;;5053381;28;20062;-59
2022/01/12 11:40:42;;;;;;;6.10;4.10;;;-5.20;62.70;;;;;;5059043;28;20047;-60
2022/01/12 11:43:21;;;;;;;4.15;3.55;;;-5.20;63.00;;;;;;5064030;28;20074;-59
2022/01/12 11:46:07;;;;;;;3.30;2.97;;;-5.30;62.80;;;;;;5066226;28;20066;-60
2022/01/12 11:48:54;;;;;;;5.13;3.65;;;-5.30;62.50;;;;;;5064598;28;20056;-60
2022/01/12 11:51:32;;;;;;;3.90;3.45;;;-5.40;62.30;;;;;;5058261;28;20472;-58
2022/01/12 11:54:07;;;;;;;4.35;3.55;;;-5.40;63.10;;;;;;5062275;28;20400;-59
2022/01/12 11:56:32;;;;;;;3.42;3.08;;;-5.40;62.40;;;;;;5061668;28;20028;-59
2022/01/12 11:59:10;;;;;;;6.47;3.90;;;-5.50;61.90;;;;;;5062147;28;20032;-58
2022/01/12 12:01:45;;;;;;;5.95;3.83;;;-5.50;61.70;;;;;;5056410;28;20029;-59
2022/01/12 12:04:22;;;;;;;3.63;3.25;;;-5.60;61.80;;;;;;5056931;28;20060;-59
2022/01/12 12:06:49;;;;;;;4.80;3.17;;;-5.60;61.70;;;;;;5054292;28;20058;-59
2022/01/12 12:09:18;;;;;;;4.40;3.50;;;-5.70;61.40;;;;;;5064105;28;20035;-59
2022/01/12 12:11:51;;;;;;;6.13;3.60;;;-5.70;61.60;;;;;;5059458;28;20028;-59
2022/01/12 12:14:18;;;;;;;4.18;3.15;;;-5.70;61.50;;;;;;5064257;28;20024;-57
2022/01/12 12:16:44;;;;;;;3.78;3.13;;;-5.70;61.20;;;;;;5068609;28;20436;-59
2022/01/12 12:19:10;;;;;;;6.30;4.10;;;-5.70;61.20;;;;;;5068590;28;20490;-60
2022/01/12 12:21:36;;;;;;;5.18;3.33;;;-5.80;61.30;;;;;;5070358;28;20139;-59
2022/01/12 12:24:13;;;;;;;6.75;4.10;;;-5.80;61.30;;;;;;5065990;28;20041;-58
2022/01/12 12:26:46;;;;;;;6.32;3.88;;;-5.80;61.30;;;;;;5071749;28;20512;-59
2022/01/12 12:29:14;;;;;;;6.05;3.92;;;-5.80;61.30;;;;;;5068741;28;20048;-58
2022/01/12 12:31:40;;;;;;;5.82;3.72;;;-5.80;61.10;;;;;;5059576;28;20039;-59
2022/01/12 12:34:06;;;;;;;7.53;3.65;;;-5.80;60.90;;;;;;5070709;28;20341;-59
2022/01/12 12:36:33;;;;;;;4.88;3.60;;;-5.90;60.80;;;;;;5065060;28;20066;-57
2022/01/12 12:39:07;;;;;;;4.18;3.60;;;-5.90;60.80;;;;;;5074155;28;20538;-58
2022/01/12 12:41:38;;;;;;;5.32;3.85;;;-5.90;61.00;;;;;;5060491;28;20105;-57
2022/01/12 12:44:04;;;;;;;5.28;4.00;;;-5.90;61.00;;;;;;5067674;28;20661;-57
2022/01/12 12:46:30;;;;;;;4.40;3.70;;;-5.90;61.20;;;;;;5063818;28;20036;-57
2022/01/12 12:48:56;;;;;;;5.22;3.65;;;-6.00;61.10;;;;;;5069951;28;20032;-58
2022/01/12 12:51:22;;;;;;;4.65;3.60;;;-6.00;61.30;;;;;;5064609;28;20052;-59
2022/01/12 12:53:52;;;;;;;6.22;3.95;;;-5.90;61.30;;;;;;5059426;28;20485;-60
2022/01/12 12:56:21;;;;;;;4.28;3.53;;;-5.90;61.30;;;;;;5059448;28;20143;-58
2022/01/12 12:58:51;;;;;;;5.25;3.92;;;-5.90;61.60;;;;;;5058359;28;20024;-58
2022/01/12 13:01:19;;;;;;;6.55;4.10;;;-6.00;61.70;;;;;;5050126;28;20896;-59
2022/01/12 13:03:50;;;;;;;4.82;3.72;;;-6.00;61.40;;;;;;5061859;28;20036;-59
2022/01/12 13:06:20;;;;;;;6.18;3.63;;;-6.00;62.00;;;;;;5062156;28;20063;-59
2022/01/12 13:08:58;;;;;;;7.30;3.63;;;-6.00;61.40;;;;;;5063297;28;20045;-59
2022/01/12 13:11:29;;;;;;;6.15;3.70;;;-6.00;61.60;;;;;;5065969;28;20032;-59
2022/01/12 13:14:00;;;;;;;4.20;3.60;;;-6.00;61.10;;;;;;5069924;28;20036;-59
2022/01/12 13:16:27;;;;;;;7.20;4.00;;;-6.00;61.70;;;;;;5063303;28;20020;-60
2022/01/12 13:19:03;;;;;;;5.53;3.83;;;-6.00;61.90;;;;;;5068298;28;20082;-60
2022/01/12 13:21:30;;;;;;;8.00;3.88;;;-6.10;61.80;;;;;;5063256;28;20048;-58
2022/01/12 13:23:58;;;;;;;5.75;4.20;;;-6.10;61.60;;;;;;5066311;28;20032;-60
2022/01/12 13:26:26;;;;;;;5.18;3.60;;;-6.20;61.40;;;;;;5063686;28;20925;-59
2022/01/12 13:28:51;;;;;;;6.78;4.10;;;-6.20;61.20;;;;;;5062062;28;20047;-58
2022/01/12 13:31:19;;;;;;;7.15;4.10;;;-6.30;61.20;;;;;;5061880;28;20381;-59
2022/01/12 13:33:47;;;;;;;6.22;3.85;;;-6.40;61.00;;;;;;5065795;28;20024;-59
2022/01/12 13:36:27;;;;;;;5.68;3.92;;;-6.40;61.10;;;;;;5060960;28;21227;-58
2022/01/12 13:38:57;;;;;;;4.85;3.67;;;-6.50;60.90;;;;;;5062605;28;20028;-60
2022/01/12 13:41:26;;;;;;;4.30;3.35;;;-6.50;61.20;;;;;;5055818;28;20032;-60
2022/01/12 13:43:58;;;;;;;5.60;3.53;;;-6.60;61.00;;;;;;5059957;28;20395;-59
2022/01/12 13:47:12;;;;;;;4.50;3.33;;;-6.60;61.20;;;;;;5064961;28;20051;-58
2022/01/12 13:49:37;;;;;;;4.40;3.55;;;-6.60;61.20;;;;;;5047831;28;20035;-58
2022/01/12 13:52:09;;;;;;;6.03;3.50;;;-6.60;61.10;;;;;;5064028;28;20032;-58
2022/01/12 13:54:39;;;;;;;;;;;-6.60;61.40;;;;;;5069783;28;20115;-58
2022/01/12 13:57:07;;;;;;;4.05;3.35;;;-6.70;61.10;;;;;;5065683;28;19941;-59
2022/01/12 13:59:50;;;;;;;5.65;5.10;;;-6.70;61.20;;;;;;5061004;28;20028;-58
2022/01/12 14:02:18;;;;;;;5.80;3.67;;;-6.70;61.30;;;;;;5053366;28;20020;-59
2022/01/12 14:04:59;;;;;;;3.78;3.38;;;-6.70;61.90;;;;;;5056609;28;20028;-58
2022/01/12 14:07:29;;;;;;;5.50;3.87;;;-6.80;61.40;;;;;;5065443;28;20046;-59
2022/01/12 14:09:57;;;;;;;6.20;3.92;;;-6.80;61.00;;;;;;5065939;28;20311;-59
2022/01/12 14:12:26;;;;;;;7.88;4.68;;;-6.80;60.80;;;;;;5058763;28;20039;-56